Ahmad Pato

Olheiro - Persik
6 Jan 2028
Quinta-feira
Processo

Personalidade

Adaptabilidade (2) Ambição (18) Controvérsia (13) Lealdade (9) Pressão (16) Profissionalismo (18) Espírito Esportivo (2) Temperamento (13)

Perfil

Estilo de Treinamento Democrático
Licença Nacional A
Determinação 5
Gestão de Pessoas 8
Motivação 3
Disciplina 7
Satisfação no Trabalho
100%
Fadiga
0%
Função Olheiro
Salário 19.3K p/s
Contrato 14.03.2028

Desempenho

Comportamento Bom
Eficácia do Treinamento
23%
Desenvolvimento do Jogador
20%
Prevenção de Lesões
10%
Implementação Tática
10%

Eventos Recentes

Negociação de contrato iniciada agora
Participou de uma reunião de recrutamento agora
Avaliou um jogador 7d atrás
Negociação de contrato iniciada 7d atrás
Avaliou um jogador 7d atrás
Negociação de contrato iniciada 7d atrás
Negociação de contrato iniciada 7d atrás
Negociação de contrato iniciada 7d atrás

Monitorando agora

78
Jogador Clube Status Habilidade Confiança Observado Última observação Último voto
Jean Befolo M'barga Dewa United Ativo 70 / 82 55% 1 01.01.2028 -
Alejandro Quintana Atlanta Ativo 92 / 95 40% 11 30.12.2027 -
Gianluca Pugliese Güemes Ativo 112 / 117 40% 2 30.12.2027 -
Diego Campos Bali United Ativo 113 / 103 40% 7 29.12.2027 -
Alexandre Ramalingom Persita Ativo 108 / 103 40% 2 29.12.2027 -
Naoufel Zerhouni Persib Ativo 112 / 108 40% 5 27.12.2027 -
Agustín Gallo Tristán Suárez Ativo 109 / 109 40% 4 26.12.2027 -
Santiago Apa All Boys Ativo 97 / 122 40% 5 25.12.2027 -
Oscar Belinetz Agropecuario Argentino Ativo 101 / 113 40% 2 25.12.2027 -
Genaro Rossi San Martín SJ Ativo 94 / 109 40% 1 23.12.2027 -
Sebastián Cocimano Nueva Chicago Ativo 117 / 114 40% 6 22.12.2027 -
Gustavo Viera Cerro Largo Ativo 104 / 112 40% 2 22.12.2027 -
Marco Miori Alvarado Ativo 124 / 124 40% 3 21.12.2027 -
Adrián Dalmau PSIM Ativo 106 / 96 40% 5 21.12.2027 -
Sudi Abdallah Persijap Ativo 91 / 101 51% 9 20.12.2027 -
Javier Martínez Almirante Brown Ativo 105 / 102 40% 5 20.12.2027 -
Ignacio Valsangiácomo Racing Ativo 86 / 95 40% 2 18.12.2027 -
Hernán Rivero Patronato Ativo 124 / 111 40% 3 17.12.2027 -
Júnior Brandão Madura United Ativo 94 / 96 40% 1 17.12.2027 -
Nermin Haljeta PSIM Ativo 116 / 102 40% 2 16.12.2027 -
Leonel Barrios Talleres Ativo 95 / 87 40% 2 15.12.2027 -
Kodai Tanaka PSM Ativo 94 / 103 40% 2 15.12.2027 -
Abdoulaye Diarra Bali United Ativo 97 / 96 40% 4 14.12.2027 -
Lucas Carrizo Plaza Colonia Ativo 118 / 101 40% 4 13.12.2027 -
Luca Franco Arsenal Ativo 116 / 112 40% 5 13.12.2027 -
Danilo Santacruz Madura United Ativo 104 / 110 40% 8 12.12.2027 -
Augusto Berrondo Tristán Suárez Ativo 96 / 121 40% 8 11.12.2027 -
Nicolás Heiz Maipú Ativo 90 / 103 40% 4 11.12.2027 -
Juan Mendoza Güemes Ativo 118 / 93 40% 4 09.12.2027 -
Juan Rocca Gimnasia y Tiro Ativo 124 / 108 40% 5 07.12.2027 -
Esteban da Silva Racing Ativo 123 / 106 40% 3 06.12.2027 -
Koldo Obieta Borneo Ativo 96 / 107 40% 1 02.12.2027 -
Facundo Castelli Estudiantes Ativo 118 / 124 40% 5 01.12.2027 -
Lucas Pedraza Defensores Unidos Ativo 97 / 108 40% 3 30.11.2027 -
Sávio PSM Ativo 103 / 104 40% 3 28.11.2027 -
Dalberto Arema Ativo 107 / 108 40% 6 22.11.2027 -
Luka Čumić PSM Ativo 105 / 94 40% 1 19.11.2027 -
Valdeci Arema Ativo 90 / 105 40% 3 18.11.2027 -
Dejan Tumbas Persis Ativo 86 / 105 40% 1 18.11.2027 -
Alan Bonansea Colón Ativo 93 / 108 40% 1 17.11.2027 -
Alan Sombra Defensores Unidos Ativo 97 / 92 40% 3 13.11.2027 -
Kianz Froese Semen Padang Ativo 96 / 95 40% 1 12.11.2027 -
Kokoro Kobayashi Vegalta Sendai Ativo 113 / 124 40% 1 04.11.2027 -
Joel Kojo Navbahor Ativo 111 / 106 40% 1 31.10.2027 -
Jort van der Sande Bali United Ativo 104 / 108 40% 2 19.10.2027 -
Bruno Nasta San Miguel Ativo 119 / 99 40% 1 19.10.2027 -
Uilliam Barros Persib Ativo 99 / 98 40% 3 18.10.2027 -
Alexander Jeremejeff Persija Ativo 104 / 112 40% 6 13.10.2027 -
Elías Ayala Madryn Ativo 122 / 120 40% 1 08.09.2027 -
José Álvarez Albion Ativo 115 / 105 40% 1 03.09.2027 -
Lucas Morelatto Persijap Ativo 100 / 108 40% 1 18.08.2027 -
Yeferson Rodallega Envigado Ativo 125 / 130 40% 2 16.08.2027 -
Andrés Álvarez Aguilas Doradas Ativo 102 / 100 40% 1 15.08.2027 -
França Maluku Utara United Ativo 95 / 90 40% 2 13.08.2027 -
Nicolás Talpone Colón Ativo 111 / 98 40% 1 13.08.2027 -
Santiago Corbo Miramar Misiones Ativo 100 / 104 40% 2 11.08.2027 -
Nicolás Paz San Martín SJ Ativo 130 / 115 40% 3 08.08.2027 -
Josh Smith Accrington Stanley Ativo 101 / 72 40% 2 03.08.2027 -
Zane Albarus Cambridge United Ativo 113 / 117 40% 3 02.08.2027 -
Scott Smith Barrow AFC Ativo 100 / 97 40% 1 01.08.2027 -
Erik de los Santos Racing Ativo 111 / 128 40% 1 29.07.2027 -
Muhammed Kabiru PSIM Ativo 98 / 88 40% 1 29.07.2027 -
Gonzalo Asis Almagro Ativo 119 / 110 40% 1 26.07.2027 -
Juan Pablo Córdoba Gimnasia y Esgrima Ativo 129 / 122 40% 1 26.07.2027 -
Radovan Pankov Persija Ativo 110 / 106 40% 2 19.07.2027 -
Harrison Neal Fleetwood Town Ativo 112 / 95 40% 1 14.07.2027 -
Vasily Cherov Ufa Ativo 114 / 113 40% 1 11.07.2027 -
Daniil Penchikov Arsenal Tula Ativo 88 / 118 40% 1 11.07.2027 -
Artem Makarchuk Sochi Ativo 110 / 102 40% 2 10.07.2027 -
Pavel Maslov Chaika Ativo 98 / 99 40% 2 08.07.2027 -
Nazariy Muravskyy LNZ Ativo 132 / 120 40% 1 07.07.2027 -
Rizky Pellu Maluku Utara United Ativo 85 / 80 55% 1 05.07.2027 -
Artem Meschaninov Rodina Ativo 92 / 112 40% 1 05.07.2027 -
Federico Sardella Maluku Utara United Ativo 82 / 81 55% 1 14.06.2027 -
Nurhidayat PSBS Biak Ativo 78 / 85 51% 1 07.01.2027 -
Mohcine Hassan PSBS Biak Ativo 80 / 84 51% 1 01.01.2027 -
Manahati Lestusen Maluku Utara United Ativo 86 / 83 51% 1 31.08.2026 -
Iker Guarrotxena Persijap Ativo 124 / 124 30% 1 / 1m 19.08.2026 -